Sapp, Missouri
Current Conditions -  °F | °C
As of 12:54 AM on Wednesday 22 Oct 2014 (Local Time) from KCOU Reporting Station
Clear Clear  
Wind Chill: 44°   Ceiling: Unl
Heat Index: 48°   Visibility: 10mi
Dew Point: 41°   Wind: 9mph
Humidity: 77%   Direction: 90°E
Pressure: 30.18"   Gusts: NA
Location:  38.895°N, 92.3958°W
Report Text: KCOU 220554Z AUTO 09008KT 10SM CLR 09/05 A3018 RMK AO2 SLP216 T00890050 10150 20089 402280067 51003
Loading
Personal Weather Stations






























Interactive Weather Map
Tropical Storm Tracking
New forecast layout! Learn more

10-Day Weather Forecast

Advertisements
Track Severe Weather on mobile